Leesburg, Indiana
Current Conditions -  °F | °C
As of 11:15 AM on Sunday 23 Nov 2014 (Local Time) from KASW Reporting Station
Light Rain Light Rain  
Wind Chill: 50°   Ceiling: Unl
Heat Index: 50°   Visibility: 10mi
Dew Point: 43°   Wind: 5mph
Humidity: 76%   Direction: 160°SSE
Pressure: 29.81"   Gusts: NA
Location:  41.33°N, 85.85°W
Report Text: KASW 231615Z AUTO 16004KT 10SM -RA SCT026 10/06 A2981 RMK AO2
Loading
Personal Weather Stations






























Interactive Weather Map New forecast layout! Learn more

10-Day Weather Forecast

Advertisements
Track Severe Weather on mobile